Terminal Aerodrome Forecast
Issued by NWS

Home | Current Version | Previous Version | Text Only | Print | Product List | Glossary On
Versions: 1 2 3 4 5 6 7 8 9 10 11 12 13 14 15 16 17 18 19 20 21 22 23 24 25 26 27 28 29 30 31 32 33 34 35 36 37 38 39 40 41 42
000
FTUS45 KBOU 191739
TAFBJC
TAF
KBJC 191739Z 1918/2018 12006KT P6SM VCTS SCT100CB BKN200
     FM191900 29009KT P6SM SCT080 BKN150
      TEMPO 1919/1923 VRB20G30KT -TSRA BKN080CB
     FM192300 12012KT P6SM VCTS SCT080CB BKN120
      TEMPO 2003/2007 VRB15G25KT BKN080CB
     FM200700 30008KT P6SM FEW080 BKN120=

USA.gov is the U.S. government's official web portal to all federal, state and local government web resources and services.